createdAt,value
2019-04-16T03:42:35.403Z,93.50
2019-04-16T03:45:09.831Z,93.59
2019-04-16T03:47:41.912Z,93.79
2019-04-16T03:50:13.646Z,93.94
2019-04-16T03:52:45.918Z,94.02
2019-04-16T03:55:17.524Z,93.95
2019-04-16T03:57:49.655Z,93.85
2019-04-16T04:00:21.206Z,93.66
2019-04-16T04:02:55.051Z,93.40
2019-04-16T04:05:26.097Z,93.05
2019-04-16T04:07:57.619Z,92.51
2019-04-16T04:10:31.299Z,92.06
2019-04-16T04:13:04.866Z,91.80
2019-04-16T04:15:35.749Z,91.27
2019-04-16T04:18:11.284Z,90.94
2019-04-16T04:20:40.789Z,90.85
2019-04-16T04:23:12.679Z,90.92
2019-04-16T04:25:44.494Z,90.94
2019-04-16T04:28:20.357Z,90.78
2019-04-16T04:30:52.001Z,90.66
2019-04-16T04:33:42.825Z,90.51
2019-04-16T04:36:18.698Z,90.26
2019-04-16T04:38:49.612Z,89.96
2019-04-16T04:41:23.108Z,89.95
2019-04-16T04:43:56.815Z,89.67
2019-04-16T04:46:28.710Z,89.49
2019-04-16T04:49:00.530Z,89.37
2019-04-16T04:51:32.297Z,89.33
2019-04-16T04:54:04.171Z,89.20
2019-04-16T04:56:36.117Z,89.13
2019-04-16T04:59:07.773Z,89.16
2019-04-16T05:01:42.096Z,89.09
2019-04-16T05:04:24.081Z,89.09
2019-04-16T05:07:04.749Z,89.06
2019-04-16T05:09:36.750Z,89.10
2019-04-16T05:12:08.685Z,89.21
2019-04-16T05:14:42.002Z,89.17
2019-04-16T05:17:14.878Z,89.02
2019-04-16T05:19:47.456Z,88.96
2019-04-16T05:22:21.563Z,88.92
2019-04-16T05:25:01.268Z,88.81
2019-04-16T05:27:31.081Z,88.75
2019-04-16T05:30:02.758Z,88.78
2019-04-16T05:32:35.332Z,88.64
2019-04-16T05:35:10.314Z,88.35
2019-04-16T05:37:41.057Z,88.11
2019-04-16T05:40:12.995Z,87.91
2019-04-16T05:42:45.412Z,87.85
2019-04-16T05:45:17.784Z,87.91
2019-04-16T05:47:49.954Z,87.67
2019-04-16T05:51:16.305Z,87.49
2019-04-16T05:58:30.818Z,87.08
2019-04-16T06:01:17.693Z,87.01
2019-04-16T06:04:24.247Z,87.10
2019-04-16T06:13:33.286Z,87.17
2019-04-16T06:16:38.182Z,86.67
2019-04-16T06:22:21.415Z,86.66
2019-04-16T06:25:33.928Z,86.70
2019-04-16T06:28:30.164Z,86.59
2019-04-16T06:31:19.488Z,86.80
2019-04-16T06:34:14.844Z,86.73
2019-04-16T06:37:26.772Z,87.10
2019-04-16T06:43:39.688Z,87.00
2019-04-16T06:47:18.259Z,87.52
2019-04-16T06:53:57.578Z,87.34
2019-04-16T07:00:23.613Z,86.75
2019-04-16T07:03:37.856Z,86.42
2019-04-16T07:15:28.802Z,83.46
2019-04-16T07:18:52.395Z,84.60
2019-04-16T07:28:06.855Z,83.46
2019-04-16T07:31:00.240Z,81.76
2019-04-16T07:33:55.382Z,81.67
2019-04-16T07:37:10.549Z,82.25
2019-04-16T07:40:28.437Z,81.06
2019-04-16T07:43:50.714Z,81.76
2019-04-16T07:46:44.255Z,81.22
2019-04-16T07:49:26.362Z,81.43
2019-04-16T07:52:34.192Z,80.69
2019-04-16T07:58:09.556Z,79.97
2019-04-16T08:01:04.256Z,79.42
2019-04-16T08:04:07.335Z,78.75
2019-04-16T08:10:11.988Z,78.69
2019-04-16T08:12:46.710Z,79.11
2019-04-16T08:16:11.443Z,78.73
2019-04-16T08:18:50.189Z,78.49
2019-04-16T08:28:11.642Z,79.35
2019-04-16T08:42:01.141Z,78.33
2019-04-16T08:44:35.315Z,79.10
2019-04-16T08:47:17.693Z,79.12
2019-04-16T08:49:53.761Z,79.21
2019-04-16T08:52:22.406Z,78.30
2019-04-16T08:54:54.982Z,79.12
2019-04-16T08:57:31.759Z,79.25
2019-04-16T08:59:59.929Z,79.23
2019-04-16T09:02:31.815Z,79.20
2019-04-16T09:05:06.907Z,78.41
2019-04-16T09:07:39.609Z,79.60
2019-04-16T09:10:18.509Z,79.36
2019-04-16T09:13:02.462Z,79.98
2019-04-16T09:15:26.974Z,79.56
2019-04-16T09:17:58.909Z,79.83
2019-04-16T09:20:34.747Z,79.43
2019-04-16T09:23:05.202Z,78.48
2019-04-16T09:25:38.586Z,79.64
2019-04-16T09:28:25.162Z,80.27
2019-04-16T09:31:08.295Z,80.24
2019-04-16T09:33:57.666Z,80.33
2019-04-16T09:36:39.686Z,80.28
2019-04-16T09:39:22.200Z,79.21
2019-04-16T09:41:53.997Z,80.15
2019-04-16T09:44:29.748Z,79.63
2019-04-16T09:46:59.739Z,80.45
2019-04-16T09:49:34.430Z,80.06
2019-04-16T09:52:05.115Z,80.12
2019-04-16T09:54:37.856Z,79.65
2019-04-16T09:57:09.686Z,80.08
2019-04-16T09:59:44.769Z,80.15
2019-04-16T10:02:20.614Z,79.31
2019-04-16T10:04:52.362Z,79.99
2019-04-16T10:07:24.225Z,81.23
2019-04-16T10:09:55.813Z,80.55
2019-04-16T10:12:27.339Z,81.11
2019-04-16T10:14:59.497Z,81.06
2019-04-16T10:17:31.111Z,81.19
2019-04-16T10:20:02.718Z,80.44
2019-04-16T10:22:34.265Z,80.27
2019-04-16T10:25:14.744Z,79.82
2019-04-16T10:27:48.207Z,79.64
2019-04-16T10:30:24.305Z,80.61
2019-04-16T10:32:56.046Z,80.17
2019-04-16T10:35:27.681Z,79.79
2019-04-16T10:38:01.049Z,79.50
2019-04-16T10:40:43.321Z,79.19
2019-04-16T10:43:25.467Z,78.89
2019-04-16T10:46:04.611Z,79.30
2019-04-16T10:48:38.035Z,78.53
2019-04-16T10:51:15.192Z,77.72
2019-04-16T10:53:51.886Z,77.29
2019-04-16T10:56:28.154Z,77.66
2019-04-16T10:59:17.820Z,75.99
2019-04-16T11:01:51.205Z,75.96
2019-04-16T11:04:30.532Z,75.76
2019-04-16T11:07:03.997Z,76.12
2019-04-16T11:09:35.489Z,75.73
2019-04-16T11:12:07.460Z,75.74
2019-04-16T11:14:39.056Z,74.85
2019-04-16T11:17:10.957Z,73.14
2019-04-16T11:19:42.749Z,73.08
2019-04-16T11:22:15.224Z,73.28
2019-04-16T11:24:47.717Z,73.14
2019-04-16T11:27:19.326Z,71.63
2019-04-16T11:29:51.101Z,73.46
2019-04-16T11:32:27.516Z,72.29
2019-04-16T11:34:59.349Z,70.11
2019-04-16T11:37:35.950Z,70.44
2019-04-16T11:40:05.379Z,70.76
2019-04-16T11:42:36.955Z,70.86
2019-04-16T11:45:09.225Z,70.70
2019-04-16T11:47:40.752Z,70.21
2019-04-16T11:50:12.547Z,70.46
2019-04-16T11:52:44.192Z,70.49
2019-04-16T11:55:16.234Z,70.67
2019-04-16T11:57:47.785Z,69.83
2019-04-16T12:00:21.493Z,69.70
2019-04-16T12:02:54.583Z,69.96
2019-04-16T12:05:34.150Z,70.22
2019-04-16T12:08:16.751Z,69.45
2019-04-16T12:11:06.336Z,70.49
2019-04-16T12:13:39.767Z,70.00
2019-04-16T12:16:29.385Z,70.09
2019-04-16T12:19:14.874Z,70.17
2019-04-16T12:21:48.163Z,70.88
2019-04-16T12:24:36.616Z,70.84
2019-04-16T12:27:26.373Z,70.49
2019-04-16T12:29:59.897Z,70.79
2019-04-16T12:32:38.960Z,70.81
2019-04-16T12:35:12.666Z,71.59
2019-04-16T12:38:02.130Z,70.00
2019-04-16T12:40:42.328Z,70.14
2019-04-16T12:43:16.265Z,69.87
2019-04-16T12:46:05.008Z,70.51
2019-04-16T12:48:38.602Z,69.66
2019-04-16T12:51:11.637Z,70.20
2019-04-16T12:53:53.346Z,69.85
2019-04-16T12:56:42.129Z,69.29
2019-04-16T12:59:15.330Z,69.36
2019-04-16T13:02:03.360Z,69.82
2019-04-16T13:04:39.935Z,69.79
2019-04-16T13:07:16.293Z,68.82
2019-04-16T13:10:06.701Z,69.59
2019-04-16T13:12:45.770Z,70.37
2019-04-16T13:15:19.141Z,69.97
2019-04-16T13:17:54.922Z,70.63
2019-04-16T13:20:33.891Z,69.56
2019-04-16T13:23:23.176Z,69.75
2019-04-16T13:25:56.756Z,69.64
2019-04-16T13:28:28.323Z,69.18
2019-04-16T13:31:00.276Z,70.03
2019-04-16T13:33:31.739Z,69.26
2019-04-16T13:36:03.445Z,69.97
2019-04-16T13:38:37.588Z,69.72
2019-04-16T13:41:10.595Z,69.86
2019-04-16T13:43:46.740Z,70.22
2019-04-16T13:46:18.602Z,70.36
2019-04-16T13:48:59.384Z,70.65
2019-04-16T13:51:29.727Z,70.28
2019-04-16T13:54:06.365Z,71.15
2019-04-16T13:56:42.525Z,70.39
2019-04-16T13:59:32.433Z,70.27
2019-04-16T14:02:12.003Z,70.73
2019-04-16T14:04:45.346Z,70.86
2019-04-16T14:07:17.263Z,71.11
2019-04-16T14:09:48.994Z,71.59
2019-04-16T14:12:28.038Z,70.92
2019-04-16T14:14:54.114Z,71.01
2019-04-16T14:17:29.150Z,71.72
2019-04-16T14:20:01.647Z,71.56
2019-04-16T14:22:33.481Z,71.14
2019-04-16T14:25:07.263Z,71.09
2019-04-16T14:27:38.838Z,71.38
2019-04-16T14:30:12.916Z,72.20
2019-04-16T14:32:44.711Z,71.71
2019-04-16T14:35:33.307Z,72.19
2019-04-16T14:38:00.278Z,71.44
2019-04-16T14:40:31.864Z,71.58
2019-04-16T14:43:04.017Z,71.58
2019-04-16T14:45:57.438Z,70.96
2019-04-16T14:48:20.169Z,70.18
2019-04-16T14:50:52.102Z,70.68
2019-04-16T14:53:25.396Z,70.40
2019-04-16T14:56:00.620Z,70.53
2019-04-16T14:58:45.531Z,70.99
2019-04-16T15:01:35.389Z,70.66
2019-04-16T15:04:17.693Z,71.34
2019-04-16T15:07:07.466Z,71.05
2019-04-16T15:09:53.042Z,71.05
2019-04-16T15:12:34.810Z,70.82
2019-04-16T15:15:12.148Z,70.93
2019-04-16T15:17:48.493Z,70.35
2019-04-16T15:20:24.876Z,69.99
2019-04-16T15:23:01.025Z,70.18
2019-04-16T15:25:50.704Z,70.90
2019-04-16T15:28:24.017Z,71.49
2019-04-16T15:31:01.435Z,71.63
2019-04-16T15:33:38.770Z,71.71
2019-04-16T15:36:11.660Z,71.63
2019-04-16T15:38:50.942Z,71.51
2019-04-16T15:41:32.982Z,71.48
2019-04-16T15:44:23.598Z,72.35
2019-04-16T15:46:56.439Z,71.93
2019-04-16T15:49:29.858Z,72.17
2019-04-16T15:52:19.235Z,72.61
2019-04-16T15:55:04.609Z,72.65
2019-04-16T15:57:44.151Z,72.88
2019-04-16T16:00:17.757Z,73.34
2019-04-16T16:02:57.210Z,73.23
2019-04-16T16:05:33.452Z,73.55
2019-04-16T16:08:23.373Z,73.71
2019-04-16T16:11:16.380Z,73.51
2019-04-16T16:13:45.274Z,73.60
2019-04-16T16:16:18.011Z,73.78
2019-04-16T16:18:50.050Z,73.80
2019-04-16T16:21:21.785Z,73.80
2019-04-16T16:23:54.320Z,73.85
2019-04-16T16:26:26.082Z,73.59
2019-04-16T16:28:58.356Z,73.86
2019-04-16T16:31:33.605Z,74.00
2019-04-16T16:34:03.344Z,74.40
2019-04-16T16:36:37.752Z,74.24
2019-04-16T16:39:09.619Z,74.31
2019-04-16T16:41:46.315Z,74.29
2019-04-16T16:44:16.104Z,74.63
2019-04-16T16:46:57.300Z,74.76
2019-04-16T16:49:25.461Z,74.46
2019-04-16T16:52:15.533Z,74.51
2019-04-16T16:54:48.942Z,74.44
2019-04-16T16:57:25.193Z,74.22
2019-04-16T17:00:04.936Z,74.27
2019-04-16T17:02:50.860Z,74.58
2019-04-16T17:05:25.929Z,74.63
2019-04-16T17:07:57.519Z,74.57
2019-04-16T17:10:29.270Z,74.45
2019-04-16T17:13:00.939Z,74.31
2019-04-16T17:15:32.784Z,74.63
2019-04-16T17:18:04.859Z,74.93
2019-04-16T17:20:38.393Z,74.75
2019-04-16T17:23:09.628Z,74.51
2019-04-16T17:25:41.493Z,74.55
2019-04-16T17:28:13.111Z,74.52
2019-04-16T17:30:44.871Z,74.72
2019-04-16T17:33:17.236Z,74.45
2019-04-16T17:35:49.203Z,74.05
2019-04-16T17:38:21.265Z,73.66
2019-04-16T17:40:58.641Z,73.90
2019-04-16T17:43:35.537Z,73.70
2019-04-16T17:46:25.217Z,73.70
2019-04-16T17:48:58.631Z,73.89
2019-04-16T17:51:41.055Z,73.41
2019-04-16T17:54:18.565Z,73.17
2019-04-16T17:57:11.455Z,73.02
2019-04-16T18:00:04.630Z,73.35
2019-04-16T18:02:53.163Z,73.61
2019-04-16T18:05:38.775Z,73.95
2019-04-16T18:08:28.863Z,73.71
2019-04-16T18:11:06.117Z,73.77
2019-04-16T18:13:40.140Z,73.78
2019-04-16T18:16:25.609Z,74.38
2019-04-16T18:19:04.849Z,74.83
2019-04-16T18:21:38.341Z,75.26
2019-04-16T18:24:13.049Z,75.62
2019-04-16T18:26:46.990Z,75.90
2019-04-16T18:29:32.805Z,76.10
2019-04-16T18:32:06.942Z,76.01
2019-04-16T18:34:46.602Z,76.10
2019-04-16T18:37:37.177Z,76.33
2019-04-16T18:40:20.751Z,76.36
2019-04-16T18:42:57.269Z,76.28
2019-04-16T18:45:31.952Z,76.18
2019-04-16T18:48:13.152Z,76.21
2019-04-16T18:50:42.017Z,76.22
2019-04-16T18:53:13.872Z,76.18
2019-04-16T18:55:45.422Z,76.18
2019-04-16T18:58:17.209Z,76.13
2019-04-16T19:00:50.574Z,76.23
2019-04-16T19:03:22.035Z,76.19
2019-04-16T19:05:53.891Z,76.35
2019-04-16T19:08:40.497Z,76.26
2019-04-16T19:10:58.835Z,76.17
2019-04-16T19:13:30.453Z,76.18
2019-04-16T19:16:02.673Z,75.50
2019-04-16T19:18:34.213Z,74.77
2019-04-16T19:21:05.869Z,75.59
2019-04-16T19:23:37.775Z,75.12
2019-04-16T19:26:09.296Z,75.42
2019-04-16T19:28:40.926Z,75.43
2019-04-16T19:31:12.816Z,75.38
2019-04-16T19:33:44.654Z,75.28
2019-04-16T19:36:16.515Z,74.81
2019-04-16T19:38:48.364Z,75.11
2019-04-16T19:41:23.322Z,75.45
2019-04-16T19:43:53.746Z,75.47
2019-04-16T19:46:25.287Z,74.84
2019-04-16T19:49:00.442Z,74.99
2019-04-16T19:51:31.361Z,74.92
2019-04-16T19:54:03.588Z,74.80
2019-04-16T19:56:35.285Z,74.80
2019-04-16T19:59:07.045Z,74.76
2019-04-16T20:01:38.892Z,74.56
2019-04-16T20:04:10.989Z,74.75
2019-04-16T20:06:43.025Z,74.85
2019-04-16T20:09:14.888Z,74.88
2019-04-16T20:11:47.355Z,75.00
2019-04-16T20:14:19.119Z,75.13
2019-04-16T20:16:50.978Z,75.16
2019-04-16T20:19:22.839Z,75.07
2019-04-16T20:21:54.903Z,75.17
2019-04-16T20:24:26.472Z,75.16
2019-04-16T20:26:58.218Z,75.23
2019-04-16T20:29:29.973Z,75.32
2019-04-16T20:32:01.721Z,75.47
2019-04-16T20:34:33.489Z,75.50
2019-04-16T20:37:05.443Z,75.18
2019-04-16T20:39:40.621Z,75.35
2019-04-16T20:42:10.394Z,75.43
2019-04-16T20:44:42.266Z,75.42
2019-04-16T20:47:14.111Z,75.44
2019-04-16T20:49:46.005Z,75.46
2019-04-16T20:52:18.956Z,75.45
2019-04-16T20:54:52.552Z,75.28
2019-04-16T20:57:25.665Z,75.13
2019-04-16T20:59:57.402Z,74.99
2019-04-16T21:02:30.903Z,74.94
2019-04-16T21:05:04.366Z,75.06
2019-04-16T21:07:35.947Z,75.27
2019-04-16T21:10:08.060Z,75.22
2019-04-16T21:12:39.590Z,75.37
2019-04-16T21:15:11.218Z,75.24
2019-04-16T21:17:43.088Z,75.32
2019-04-16T21:20:19.326Z,75.36
2019-04-16T21:22:48.335Z,75.34
2019-04-16T21:25:19.992Z,75.25
2019-04-16T21:27:53.390Z,75.04
2019-04-16T21:30:24.933Z,74.96
2019-04-16T21:32:58.443Z,74.94
2019-04-16T21:35:37.676Z,74.89
2019-04-16T21:38:19.982Z,74.80
2019-04-16T21:40:52.782Z,74.73
2019-04-16T21:43:24.818Z,74.62
2019-04-16T21:45:56.677Z,74.49
2019-04-16T21:48:28.440Z,74.64
2019-04-16T21:51:00.290Z,74.71
2019-04-16T21:53:32.199Z,74.59
2019-04-16T21:56:08.165Z,74.41
2019-04-16T21:58:37.101Z,74.20
2019-04-16T22:01:10.614Z,74.11
2019-04-16T22:03:43.587Z,74.17
2019-04-16T22:06:19.742Z,74.10
2019-04-16T22:08:48.334Z,73.92
2019-04-16T22:11:20.086Z,73.89
2019-04-16T22:13:51.888Z,73.72
2019-04-16T22:16:26.684Z,73.71
2019-04-16T22:18:56.997Z,73.56
2019-04-16T22:21:28.700Z,73.40
2019-04-16T22:24:00.530Z,73.23
2019-04-16T22:26:35.268Z,73.07
2019-04-16T22:29:05.584Z,72.83
2019-04-16T22:31:37.216Z,72.62
2019-04-16T22:34:09.219Z,72.60
2019-04-16T22:36:41.158Z,72.89
2019-04-16T22:39:14.438Z,72.87
2019-04-16T22:41:47.531Z,72.89
2019-04-16T22:44:29.634Z,72.95
2019-04-16T22:47:02.964Z,72.92
2019-04-16T22:49:34.471Z,72.90
2019-04-16T22:52:06.336Z,72.86
2019-04-16T22:54:37.927Z,72.76
2019-04-16T22:57:11.287Z,72.69
2019-04-16T22:59:42.831Z,72.65
2019-04-16T23:02:22.216Z,72.73
2019-04-16T23:04:54.914Z,72.70
2019-04-16T23:07:27.635Z,72.57
2019-04-16T23:09:59.604Z,72.43
2019-04-16T23:12:31.450Z,72.38
2019-04-16T23:15:03.291Z,72.37
2019-04-16T23:17:34.878Z,72.43
2019-04-16T23:20:06.838Z,72.30
2019-04-16T23:22:38.272Z,72.21
2019-04-16T23:25:10.236Z,72.24
2019-04-16T23:27:41.691Z,72.49
2019-04-16T23:30:15.741Z,72.28
2019-04-16T23:32:46.838Z,72.40
2019-04-16T23:35:18.495Z,72.58
2019-04-16T23:37:50.153Z,72.60
2019-04-16T23:40:23.134Z,72.68
2019-04-16T23:43:11.483Z,72.75
2019-04-16T23:45:47.643Z,72.78
2019-04-16T23:48:28.464Z,72.75
2019-04-16T23:51:17.068Z,72.75
2019-04-16T23:53:50.265Z,72.92
2019-04-16T23:56:26.421Z,73.01
2019-04-16T23:59:02.934Z,73.02
